Time;durP1;ratioP1;P1;durP2;ratioP2;P2;SDS_P1;SDS_P2;PMS_P1;PMS_P2;Temp;Humidity;BMP_temperature;BMP_pressure;BME280_temperature;BME280_humidity;BME280_pressure;Samples;Min_cycle;Max_cycle;Signal;HPM_P1;HPM_P2
2021/10/23 00:02:00;;;;;;;5.70;2.30;;;;;;;7.05;65.55;100290.02;116556;1192;22907;-77
2021/10/23 00:04:31;;;;;;;6.10;2.20;;;;;;;7.04;65.68;100296.09;116691;1189;23444;-78
2021/10/23 00:07:01;;;;;;;3.80;2.00;;;;;;;7.06;65.76;100309.36;116778;1188;21876;-77
2021/10/23 00:09:31;;;;;;;4.60;2.10;;;;;;;7.10;65.74;100316.05;116828;1182;21901;-78
2021/10/23 00:12:05;;;;;;;4.00;1.90;;;;;;;7.11;65.61;100317.73;117049;1186;22072;-77
2021/10/23 00:14:37;;;;;;;4.10;1.70;;;;;;;7.11;65.67;100323.27;116861;1189;22942;-77
2021/10/23 00:17:07;;;;;;;4.60;1.80;;;;;;;7.15;65.76;100326.61;116910;1189;21885;-78
2021/10/23 00:19:36;;;;;;;3.10;1.80;;;;;;;7.17;65.68;100338.66;116813;1187;21984;-78
2021/10/23 00:22:06;;;;;;;4.00;1.70;;;;;;;7.18;65.63;100345.20;116916;1187;21874;-77
2021/10/23 00:24:36;;;;;;;4.90;1.40;;;;;;;7.21;65.77;100355.23;117070;1187;21885;-77
2021/10/23 00:27:05;;;;;;;5.10;1.60;;;;;;;7.25;65.75;100360.84;117080;1186;23478;-77
2021/10/23 00:29:34;;;;;;;7.80;1.70;;;;;;;7.27;65.63;100363.13;117078;1187;22372;-78
2021/10/23 00:32:04;;;;;;;3.60;1.80;;;;;;;7.27;65.53;100363.84;117000;1183;21942;-77
2021/10/23 00:34:33;;;;;;;3.60;1.50;;;;;;;7.27;65.61;100363.61;117097;1187;24218;-77
2021/10/23 00:37:03;;;;;;;4.80;2.00;;;;;;;7.25;65.42;100368.52;117057;1187;22624;-77
2021/10/23 00:39:32;;;;;;;6.10;2.10;;;;;;;7.22;65.33;100369.70;117080;1187;23523;-77
2021/10/23 00:42:03;;;;;;;3.80;1.30;;;;;;;7.21;65.40;100370.37;117137;1187;21892;-77
2021/10/23 00:44:43;;;;;;;3.80;1.50;;;;;;;7.19;65.26;100371.40;116700;1189;23447;-77
2021/10/23 00:47:17;;;;;;;5.40;1.90;;;;;;;7.16;65.31;100374.45;116666;1189;21937;-77
2021/10/23 00:49:54;;;;;;;3.70;1.50;;;;;;;7.15;65.30;100377.91;116651;1189;24186;-76
2021/10/23 00:52:26;;;;;;;5.50;2.00;;;;;;;7.15;65.45;100372.00;117046;1187;21910;-76
2021/10/23 00:54:57;;;;;;;5.00;1.70;;;;;;;7.14;65.56;100374.90;117143;1187;21890;-76
2021/10/23 00:57:26;;;;;;;3.30;1.30;;;;;;;7.13;65.60;100378.11;117333;1187;22772;-76
2021/10/23 00:59:56;;;;;;;5.00;1.80;;;;;;;7.13;65.54;100376.94;117121;1184;21898;-76
2021/10/23 01:02:25;;;;;;;3.20;1.60;;;;;;;7.12;65.51;100373.45;117084;1187;21890;-76
2021/10/23 01:04:55;;;;;;;4.10;1.50;;;;;;;7.13;65.59;100371.13;117198;1186;23499;-76
2021/10/23 01:07:24;;;;;;;4.50;2.10;;;;;;;7.13;65.58;100374.11;117136;1187;21879;-75
2021/10/23 01:09:54;;;;;;;5.20;1.70;;;;;;;7.12;65.68;100376.11;117427;1183;21951;-75
2021/10/23 01:12:23;;;;;;;3.50;1.80;;;;;;;7.11;65.67;100380.04;117220;1186;22066;-77
2021/10/23 01:14:52;;;;;;;4.90;1.70;;;;;;;7.11;65.73;100376.41;117226;1186;22891;-77
2021/10/23 01:17:23;;;;;;;4.60;1.80;;;;;;;7.09;65.73;100376.78;117201;1184;21885;-76
2021/10/23 01:19:55;;;;;;;5.30;1.50;;;;;;;7.08;65.83;100373.84;116894;1180;21890;-76
2021/10/23 01:22:28;;;;;;;;;;;;;;;7.08;65.86;100374.93;116633;1190;21864;-76
2021/10/23 01:24:58;;;;;;;3.60;1.40;;;;;;;6.98;65.96;100370.24;116520;1192;23369;-76
2021/10/23 01:27:27;;;;;;;6.60;1.40;;;;;;;6.95;66.10;100368.93;116672;1192;21913;-76
2021/10/23 01:29:57;;;;;;;5.70;2.00;;;;;;;6.96;66.25;100371.11;116623;1189;21886;-76
2021/10/23 01:32:26;;;;;;;6.30;2.30;;;;;;;6.97;66.33;100372.77;117060;1188;23515;-76
2021/10/23 01:34:55;;;;;;;3.90;1.60;;;;;;;6.98;66.35;100380.35;116837;1189;21902;-77
2021/10/23 01:37:47;;;;;;;6.40;1.90;;;;;;;6.98;66.42;100378.83;116828;1189;21886;-76
2021/10/23 01:40:23;;;;;;;4.50;2.20;;;;;;;6.96;66.46;100380.53;116756;1189;22923;-76
2021/10/23 01:42:53;;;;;;;6.40;2.20;;;;;;;6.95;66.44;100376.83;116838;1189;21879;-76
2021/10/23 01:45:22;;;;;;;6.30;2.20;;;;;;;6.94;66.56;100375.56;117106;1186;21936;-76
2021/10/23 01:47:51;;;;;;;7.70;2.50;;;;;;;6.92;66.56;100376.89;117204;1185;22897;-77
2021/10/23 01:50:24;;;;;;;4.50;1.90;;;;;;;6.91;66.67;100376.13;117217;1184;22635;-76
2021/10/23 01:52:56;;;;;;;4.10;2.00;;;;;;;6.91;66.75;100378.25;117019;1189;21986;-76
2021/10/23 01:55:25;;;;;;;7.30;1.90;;;;;;;6.88;66.68;100385.17;116896;1190;21879;-76
2021/10/23 01:57:57;;;;;;;5.80;1.90;;;;;;;6.85;66.78;100386.13;116610;1189;22929;-77
2021/10/23 02:00:26;;;;;;;8.30;2.80;;;;;;;6.84;66.83;100391.48;117003;1186;21945;-77
2021/10/23 02:02:56;;;;;;;7.30;2.50;;;;;;;6.81;66.83;100393.54;116822;1187;23440;-77
2021/10/23 02:05:25;;;;;;;5.80;2.00;;;;;;;6.80;67.07;100395.83;116884;1187;21838;-77
2021/10/23 02:07:54;;;;;;;6.40;2.20;;;;;;;6.82;67.09;100399.40;116966;1186;22834;-77
2021/10/23 02:10:24;;;;;;;5.90;2.10;;;;;;;6.83;67.17;100401.41;116828;1187;23028;-77
2021/10/23 02:12:54;;;;;;;5.60;1.70;;;;;;;6.85;67.27;100402.06;117093;1187;21868;-77
2021/10/23 02:15:23;;;;;;;6.90;2.10;;;;;;;6.88;67.30;100404.44;117105;1183;21942;-76
2021/10/23 02:17:53;;;;;;;7.00;2.20;;;;;;;6.90;67.22;100412.14;117552;1183;21891;-77
2021/10/23 02:20:25;;;;;;;5.40;2.30;;;;;;;6.92;67.27;100416.48;117522;1179;21904;-77
2021/10/23 02:22:55;;;;;;;5.20;2.10;;;;;;;6.96;67.32;100422.21;117633;1184;23426;-77
2021/10/23 02:25:24;;;;;;;6.20;2.20;;;;;;;6.98;67.27;100425.33;117542;1182;21930;-78
2021/10/23 02:27:54;;;;;;;6.60;2.10;;;;;;;7.02;67.30;100428.15;117102;1186;22305;-78
2021/10/23 02:30:24;;;;;;;6.20;2.00;;;;;;;7.02;67.27;100435.56;116818;1188;21849;-76
2021/10/23 02:32:53;;;;;;;7.50;1.70;;;;;;;7.02;67.19;100442.52;116938;1188;22802;-76
2021/10/23 02:35:23;;;;;;;9.50;3.10;;;;;;;7.01;67.10;100443.77;116918;1188;21890;-77
2021/10/23 02:37:53;;;;;;;6.80;2.00;;;;;;;7.01;67.15;100442.96;116971;1188;22124;-76
2021/10/23 02:40:24;;;;;;;7.90;2.10;;;;;;;7.01;67.01;100450.48;117017;1188;22062;-76
2021/10/23 02:42:56;;;;;;;4.30;2.10;;;;;;;6.99;66.98;100453.64;116843;1184;22910;-76
2021/10/23 02:45:26;;;;;;;7.80;2.00;;;;;;;6.98;66.97;100454.13;116979;1171;21878;-77
2021/10/23 02:47:59;;;;;;;6.90;2.00;;;;;;;6.97;67.02;100457.18;116975;1188;22086;-76
2021/10/23 02:50:31;;;;;;;4.60;1.90;;;;;;;6.96;67.09;100458.99;116889;1187;22055;-77
2021/10/23 02:53:01;;;;;;;5.60;2.50;;;;;;;6.94;66.89;100463.92;117047;1186;22904;-77
2021/10/23 02:55:30;;;;;;;7.40;2.10;;;;;;;6.92;66.79;100464.30;117054;1186;21875;-76
2021/10/23 02:58:00;;;;;;;8.60;2.20;;;;;;;6.91;66.80;100466.84;117225;1186;21895;-77
2021/10/23 03:00:33;;;;;;;8.30;2.20;;;;;;;6.90;66.95;100468.81;117090;1187;21959;-76
2021/10/23 03:04:38;;;;;;;;;;;;;;;;;;;;;
2021/10/23 03:08:20;;;;;;;;;;;;;;;;;;;;;
2021/10/23 03:12:31;;;;;;;6.60;2.60;;;;;;;6.82;67.06;100478.28;117329;1186;21882;-76
2021/10/23 03:16:08;;;;;;;8.50;3.00;;;;;;;6.79;67.09;100484.70;117226;1187;21908;-77
2021/10/23 03:19:38;;;;;;;;;;;;;;;;;;;;;
2021/10/23 03:23:16;;;;;;;8.00;3.30;;;;;;;6.68;67.22;100491.17;116638;1193;22093;-77
2021/10/23 03:29:50;;;;;;;;;;;;;;;;;;;;;
2021/10/23 03:32:42;;;;;;;7.60;3.60;;;;;;;6.71;67.32;100504.39;115618;1193;21904;-77
2021/10/23 03:35:33;;;;;;;6.60;3.40;;;;;;;6.69;67.50;100507.73;115962;1200;21899;-77
2021/10/23 03:38:46;;;;;;;9.80;3.50;;;;;;;6.66;67.30;100504.66;115908;1200;23556;-78
2021/10/23 03:41:41;;;;;;;7.00;3.30;;;;;;;6.61;67.32;100510.16;115755;1200;23655;-77
2021/10/23 03:44:29;;;;;;;7.30;3.60;;;;;;;6.59;67.42;100513.34;115665;1200;23599;-78
2021/10/23 03:47:31;;;;;;;;;;;;;;;;;;;;;
2021/10/23 03:50:28;;;;;;;7.30;2.90;;;;;;;6.52;67.52;100519.89;116149;1198;21952;-76
2021/10/23 03:53:09;;;;;;;9.40;2.50;;;;;;;6.51;67.61;100524.91;115983;1200;23489;-77
2021/10/23 03:56:07;;;;;;;6.50;2.40;;;;;;;6.49;67.65;100530.11;116042;1196;21909;-78
2021/10/23 03:59:01;;;;;;;6.60;2.80;;;;;;;6.46;67.73;100534.95;116305;1196;23465;-77
2021/10/23 04:02:40;;;;;;;4.20;2.50;;;;;;;6.42;67.72;100545.64;116289;1193;22655;-77
2021/10/23 04:06:16;;;;;;;;;;;;;;;;;;;;;
2021/10/23 04:10:03;;;;;;;7.50;3.20;;;;;;;6.43;68.18;100553.10;115713;1200;544658;-76
2021/10/23 04:13:30;;;;;;;6.20;2.60;;;;;;;6.38;68.15;100558.79;117173;1180;21876;-77
2021/10/23 04:16:41;;;;;;;8.40;3.20;;;;;;;6.34;68.25;100565.64;117332;1186;22131;-77
2021/10/23 04:19:58;;;;;;;6.70;3.00;;;;;;;6.30;68.33;100566.15;116840;1190;21903;-77
2021/10/23 04:24:11;;;;;;;;;;;;;;;;;;;;;
2021/10/23 04:32:33;;;;;;;7.90;3.10;;;;;;;6.21;68.69;100570.08;115443;1203;23685;-77
2021/10/23 04:36:43;;;;;;;;;;;;;;;;;;;;;
2021/10/23 04:44:27;;;;;;;6.70;3.10;;;;;;;6.32;68.83;100580.65;115922;1200;23569;-75
2021/10/23 04:48:12;;;;;;;9.50;3.30;;;;;;;6.34;68.83;100579.55;115826;1201;22114;-75
2021/10/23 04:51:08;;;;;;;8.90;3.10;;;;;;;6.34;68.75;100582.19;115662;1201;23687;-77
2021/10/23 04:53:53;;;;;;;11.50;3.60;;;;;;;6.35;68.78;100589.25;115664;1199;22638;-77
2021/10/23 04:56:36;;;;;;;7.90;3.80;;;;;;;6.38;68.88;100592.68;115731;1201;22658;-77
2021/10/23 04:59:31;;;;;;;10.10;3.60;;;;;;;6.41;68.72;100592.47;115788;1203;22356;-77
2021/10/23 05:02:10;;;;;;;;;;;;;;;;;;;;;
2021/10/23 05:16:02;;;;;;;11.80;4.60;;;;;;;7.85;64.80;100610.45;116706;1187;547512;-76
2021/10/23 05:18:31;;;;;;;11.80;3.60;;;;;;;8.15;63.00;100618.76;118317;1175;23535;-77
2021/10/23 05:20:59;;;;;;;12.50;4.40;;;;;;;7.71;63.71;100619.56;118508;1176;22610;-78
2021/10/23 05:23:31;;;;;;;10.10;4.10;;;;;;;7.43;64.33;100618.77;118045;1180;22922;-76
2021/10/23 05:25:59;;;;;;;13.70;4.40;;;;;;;7.25;64.97;100613.30;118138;1179;21885;-77
2021/10/23 05:28:27;;;;;;;11.00;4.20;;;;;;;7.13;65.59;100619.63;118178;1179;22640;-78
2021/10/23 05:30:56;;;;;;;11.80;3.70;;;;;;;7.04;65.81;100619.70;118095;1180;21875;-77
2021/10/23 05:33:34;;;;;;;9.50;3.90;;;;;;;6.96;66.23;100618.38;118772;1173;21859;-77
2021/10/23 05:36:43;;;;;;;9.20;3.30;;;;;;;6.87;66.45;100620.36;118271;1175;22265;-76
2021/10/23 05:39:11;;;;;;;12.60;4.40;;;;;;;6.77;66.63;100617.95;118230;1170;22906;-76
2021/10/23 05:41:39;;;;;;;9.20;3.20;;;;;;;6.71;66.89;100621.61;118253;1175;21847;-77
2021/10/23 05:44:07;;;;;;;11.00;3.30;;;;;;;6.69;67.06;100627.97;118203;1177;22445;-76
2021/10/23 05:46:35;;;;;;;12.70;3.60;;;;;;;6.67;67.31;100631.86;118269;1177;21872;-76
2021/10/23 05:49:04;;;;;;;14.00;4.00;;;;;;;6.64;67.44;100632.73;118315;1177;23470;-76
2021/10/23 05:51:32;;;;;;;9.80;4.00;;;;;;;6.62;67.52;100630.30;118335;1177;21874;-77
2021/10/23 05:54:00;;;;;;;10.10;3.50;;;;;;;6.61;67.71;100634.92;118117;1176;21858;-78
2021/10/23 05:56:31;;;;;;;14.30;5.20;;;;;;;6.64;67.95;100636.08;118261;1178;21940;-82
2021/10/23 05:59:11;;;;;;;11.60;4.40;;;;;;;6.68;68.16;100641.13;118231;1178;21919;-79
2021/10/23 06:01:42;;;;;;;9.80;3.90;;;;;;;6.71;68.05;100643.48;118175;1178;21900;-76
2021/10/23 06:04:11;;;;;;;11.00;3.40;;;;;;;6.72;68.05;100647.04;117799;1181;22982;-75
2021/10/23 06:06:39;;;;;;;11.70;4.00;;;;;;;6.75;67.97;100655.26;117867;1182;21875;-75
2021/10/23 06:09:07;;;;;;;14.30;4.90;;;;;;;6.75;67.98;100650.89;117896;1177;21910;-75
2021/10/23 06:11:39;;;;;;;11.10;5.80;;;;;;;6.76;68.09;100652.14;117992;1178;22898;-76
2021/10/23 06:14:11;;;;;;;19.80;6.30;;;;;;;6.77;68.00;100658.21;118019;1175;22069;-76
2021/10/23 06:16:41;;;;;;;12.00;5.40;;;;;;;6.76;67.95;100664.08;118418;1174;21866;-77
2021/10/23 06:19:09;;;;;;;11.10;4.50;;;;;;;6.76;68.00;100669.98;118722;1173;21861;-76
2021/10/23 06:21:37;;;;;;;13.60;4.60;;;;;;;6.77;68.02;100675.05;118898;1170;22918;-76
2021/10/23 06:24:05;;;;;;;13.30;3.70;;;;;;;6.77;68.04;100676.02;119240;1170;21864;-77
2021/10/23 06:26:33;;;;;;;13.00;4.00;;;;;;;6.79;67.96;100677.16;119045;1170;22893;-76
2021/10/23 06:29:01;;;;;;;11.90;4.70;;;;;;;6.80;67.99;100682.11;118835;1175;21874;-77
2021/10/23 06:31:30;;;;;;;10.70;3.80;;;;;;;6.83;68.02;100679.20;118669;1175;21857;-77
2021/10/23 06:33:58;;;;;;;9.50;3.60;;;;;;;6.85;67.92;100681.86;118467;1176;21888;-74
2021/10/23 06:36:26;;;;;;;12.00;4.10;;;;;;;6.86;67.84;100682.14;118669;1175;22635;-75
2021/10/23 06:38:56;;;;;;;15.50;5.00;;;;;;;6.85;67.78;100684.63;118679;1175;21859;-75
2021/10/23 06:41:25;;;;;;;12.00;3.80;;;;;;;6.84;67.83;100693.98;118686;1175;21855;-76
2021/10/23 06:43:52;;;;;;;12.60;4.40;;;;;;;6.84;67.84;100698.38;118613;1171;24110;-76
2021/10/23 06:46:23;;;;;;;9.30;3.50;;;;;;;6.84;67.83;100697.33;118387;1174;21865;-76
2021/10/23 06:48:51;;;;;;;9.80;4.30;;;;;;;6.85;67.92;100696.34;119012;1171;22688;-76
2021/10/23 06:51:19;;;;;;;137.70;18.50;;;;;;;6.87;67.88;100697.98;119006;1173;22968;-80
2021/10/23 06:53:54;;;;;;;19.30;5.10;;;;;;;6.89;68.02;100703.35;118645;1176;21861;-77
2021/10/23 06:56:30;;;;;;;37.70;7.90;;;;;;;6.97;68.15;100709.51;118424;1176;22836;-79
2021/10/23 06:59:06;;;;;;;17.30;7.30;;;;;;;7.03;68.16;100713.19;118244;1179;22882;-75
2021/10/23 07:01:34;;;;;;;17.70;5.00;;;;;;;7.05;67.89;100715.94;118203;1177;21911;-75
2021/10/23 07:04:03;;;;;;;14.40;4.40;;;;;;;7.05;67.69;100719.80;118110;1176;21863;-75
2021/10/23 07:06:31;;;;;;;20.30;5.10;;;;;;;7.02;67.55;100726.15;117983;1177;21919;-76
2021/10/23 07:08:59;;;;;;;15.20;4.80;;;;;;;7.01;67.61;100730.14;117928;1177;22341;-76
2021/10/23 07:11:27;;;;;;;14.90;4.60;;;;;;;6.98;67.55;100737.90;117980;1178;21930;-76
2021/10/23 07:13:56;;;;;;;15.30;6.30;;;;;;;6.95;67.66;100741.84;118226;1175;21961;-75
2021/10/23 07:16:26;;;;;;;16.70;4.70;;;;;;;6.94;67.78;100746.30;118295;1175;22989;-75
2021/10/23 07:18:55;;;;;;;11.30;4.00;;;;;;;6.94;67.76;100752.85;118749;1174;23514;-75
2021/10/23 07:21:23;;;;;;;13.20;5.10;;;;;;;6.93;67.79;100753.64;118824;1174;22128;-75
2021/10/23 07:23:53;;;;;;;16.50;5.60;;;;;;;6.90;67.81;100748.60;118874;1171;22044;-75
2021/10/23 07:26:21;;;;;;;18.40;6.70;;;;;;;6.89;67.94;100750.10;119092;1169;21903;-75
2021/10/23 07:28:50;;;;;;;12.50;4.60;;;;;;;6.91;68.13;100761.30;119098;1171;22636;-75
2021/10/23 07:31:20;;;;;;;16.40;4.20;;;;;;;6.94;68.12;100765.79;118902;1164;21851;-75
2021/10/23 07:33:52;;;;;;;15.40;4.50;;;;;;;6.99;68.30;100764.84;119246;1170;21853;-75
2021/10/23 07:36:25;;;;;;;15.40;5.00;;;;;;;7.04;68.27;100773.97;118773;1174;23427;-75
2021/10/23 07:38:57;;;;;;;18.50;6.10;;;;;;;7.10;68.21;100772.98;118754;1174;24116;-76
2021/10/23 07:41:26;;;;;;;16.90;5.70;;;;;;;7.14;68.18;100774.90;118833;1174;22878;-76
2021/10/23 07:43:55;;;;;;;10.90;5.60;;;;;;;7.20;68.20;100779.79;118852;1174;21846;-76
2021/10/23 07:46:26;;;;;;;14.60;6.10;;;;;;;7.24;68.02;100777.63;118754;1173;22891;-76
2021/10/23 07:48:57;;;;;;;14.30;5.30;;;;;;;7.31;68.03;100773.75;118772;1175;21881;-76
2021/10/23 07:51:27;;;;;;;13.90;5.40;;;;;;;7.34;67.93;100777.48;118822;1174;22057;-76
2021/10/23 07:53:58;;;;;;;17.10;5.50;;;;;;;7.38;67.83;100778.35;119020;1170;22076;-79
2021/10/23 07:56:30;;;;;;;17.60;6.70;;;;;;;7.45;67.98;100786.69;119087;1171;23527;-76
2021/10/23 07:59:01;;;;;;;12.30;4.60;;;;;;;7.53;67.85;100791.54;118904;1174;21871;-75
2021/10/23 08:01:35;;;;;;;15.90;4.40;;;;;;;7.60;67.52;100795.91;119040;1173;23290;-74
2021/10/23 08:04:05;;;;;;;12.90;4.00;;;;;;;7.62;67.28;100802.70;119158;1173;22889;-75
2021/10/23 08:06:41;;;;;;;17.00;5.00;;;;;;;7.66;67.19;100806.88;118845;1173;21857;-75
2021/10/23 08:09:13;;;;;;;11.90;4.30;;;;;;;7.69;66.98;100811.50;118779;1176;22607;-76
2021/10/23 08:11:43;;;;;;;15.60;5.50;;;;;;;7.71;66.85;100818.12;118584;1176;21907;-75
2021/10/23 08:14:14;;;;;;;18.60;7.30;;;;;;;7.75;66.84;100820.42;118354;1176;21889;-75
2021/10/23 08:16:43;;;;;;;9.50;4.60;;;;;;;7.80;66.80;100818.09;118794;1174;21924;-75
2021/10/23 08:19:12;;;;;;;13.10;4.90;;;;;;;7.87;66.76;100824.85;118870;1171;21873;-75
2021/10/23 08:21:41;;;;;;;9.50;4.30;;;;;;;7.94;66.73;100832.56;118751;1172;21908;-75
2021/10/23 08:24:11;;;;;;;12.10;4.60;;;;;;;7.97;66.43;100830.77;118877;1175;22898;-75
2021/10/23 08:26:41;;;;;;;11.00;4.20;;;;;;;7.97;66.27;100832.48;118538;1173;22854;-75
2021/10/23 08:29:11;;;;;;;13.60;5.50;;;;;;;7.97;66.20;100842.06;118938;1173;23546;-75
2021/10/23 08:31:42;;;;;;;17.00;5.60;;;;;;;8.00;66.22;100843.37;119146;1173;24124;-75
2021/10/23 08:34:11;;;;;;;17.10;5.10;;;;;;;8.03;65.97;100846.36;118575;1176;23638;-78
2021/10/23 08:36:39;;;;;;;12.10;4.80;;;;;;;8.05;65.85;100844.40;118540;1174;21862;-75
2021/10/23 08:39:07;;;;;;;12.10;4.60;;;;;;;8.10;65.69;100849.95;118710;1173;21877;-75
2021/10/23 08:41:37;;;;;;;16.40;6.20;;;;;;;8.11;65.52;100848.91;118831;1174;24111;-74
2021/10/23 08:44:06;;;;;;;14.20;5.80;;;;;;;8.13;65.41;100855.45;118871;1173;21890;-75
2021/10/23 08:46:36;;;;;;;16.40;5.60;;;;;;;8.14;65.34;100864.14;118934;1173;23432;-75
2021/10/23 08:49:05;;;;;;;15.70;6.50;;;;;;;8.15;65.30;100873.15;118437;1167;22892;-75
2021/10/23 08:51:33;;;;;;;12.00;5.00;;;;;;;8.17;65.25;100876.30;118495;1174;21862;-75
2021/10/23 08:54:04;;;;;;;17.20;4.60;;;;;;;8.17;65.07;100871.37;118728;1173;23083;-75
2021/10/23 08:56:34;;;;;;;13.90;4.80;;;;;;;8.18;65.26;100876.41;118734;1174;21867;-75
2021/10/23 08:59:02;;;;;;;14.50;5.40;;;;;;;8.20;65.37;100873.90;118618;1175;21879;-75
2021/10/23 09:01:31;;;;;;;11.90;4.40;;;;;;;8.26;65.41;100873.89;118433;1177;23607;-76
2021/10/23 09:03:59;;;;;;;12.50;4.40;;;;;;;8.39;65.83;100877.14;118380;1176;22894;-76
2021/10/23 09:06:35;;;;;;;17.60;4.70;;;;;;;8.51;65.79;100870.78;118509;1173;23487;-75
2021/10/23 09:09:12;;;;;;;15.20;5.40;;;;;;;8.61;65.54;100878.30;118751;1174;22039;-75
2021/10/23 09:11:47;;;;;;;15.40;5.30;;;;;;;8.65;65.02;100885.94;118295;1177;22098;-75
2021/10/23 09:14:24;;;;;;;12.40;5.40;;;;;;;8.70;64.80;100884.30;118366;1178;21896;-74
2021/10/23 09:17:08;;;;;;;9.10;4.20;;;;;;;8.73;64.45;100886.65;118339;1177;21860;-73
2021/10/23 09:19:41;;;;;;;9.90;4.50;;;;;;;8.75;64.24;100892.57;118531;1176;22318;-75
2021/10/23 09:22:32;;;;;;;11.10;4.20;;;;;;;8.79;64.08;100898.94;118468;1176;21885;-75
2021/10/23 09:25:51;;;;;;;14.80;5.40;;;;;;;8.79;63.77;100901.22;118708;1173;24283;-74
2021/10/23 09:28:31;;;;;;;15.40;4.70;;;;;;;8.77;63.57;100908.40;118537;1173;22075;-75
2021/10/23 09:31:40;;;;;;;12.30;4.30;;;;;;;8.74;63.47;100913.77;118863;1174;21855;-74
2021/10/23 09:35:23;;;;;;;10.30;4.60;;;;;;;8.65;63.25;100921.06;118594;1172;22880;-75
2021/10/23 09:38:33;;;;;;;11.10;3.60;;;;;;;8.59;63.35;100926.90;118801;1174;23035;-75
2021/10/23 09:41:25;;;;;;;9.90;5.20;;;;;;;8.53;63.32;100930.76;118837;1174;23599;-75
2021/10/23 09:44:24;;;;;;;13.90;5.40;;;;;;;8.53;63.59;100937.17;118952;1171;21861;-76
2021/10/23 09:46:55;;;;;;;11.80;4.50;;;;;;;8.55;63.76;100938.38;118425;1177;22622;-75
2021/10/23 09:49:26;;;;;;;10.90;4.80;;;;;;;8.54;63.84;100940.23;118315;1177;21893;-77
2021/10/23 09:52:10;;;;;;;11.60;5.70;;;;;;;8.57;64.17;100941.38;118487;1173;22876;-75
2021/10/23 09:54:38;;;;;;;14.70;5.20;;;;;;;8.64;64.45;100942.94;118271;1175;21929;-76
2021/10/23 09:57:14;;;;;;;14.50;5.30;;;;;;;8.72;64.53;100943.58;118347;1177;22616;-76
2021/10/23 09:59:42;;;;;;;13.90;5.50;;;;;;;8.77;64.37;100947.17;118504;1177;22887;-76
2021/10/23 10:02:16;;;;;;;17.70;5.50;;;;;;;8.78;64.06;100946.06;118480;1174;21859;-75
2021/10/23 10:04:47;;;;;;;10.40;4.70;;;;;;;8.77;63.93;100943.50;118523;1177;23523;-75
2021/10/23 10:07:15;;;;;;;14.60;4.30;;;;;;;8.75;63.89;100939.27;118331;1177;22315;-74
2021/10/23 10:09:46;;;;;;;19.70;6.20;;;;;;;8.71;63.71;100944.23;118616;1177;23566;-75
2021/10/23 10:12:15;;;;;;;17.00;5.70;;;;;;;8.68;63.75;100944.55;118237;1180;23468;-75
2021/10/23 10:14:44;;;;;;;11.50;5.20;;;;;;;8.67;63.89;100940.52;117565;1183;21872;-74
2021/10/23 10:17:13;;;;;;;11.50;5.30;;;;;;;8.68;63.97;100939.09;117616;1183;23527;-75
2021/10/23 10:19:47;;;;;;;13.10;5.10;;;;;;;8.69;63.88;100934.63;117701;1182;23476;-74
2021/10/23 10:22:16;;;;;;;13.90;5.00;;;;;;;8.68;63.87;100934.02;117549;1183;21880;-74
2021/10/23 10:24:44;;;;;;;14.90;5.60;;;;;;;8.67;63.79;100937.98;117573;1184;21892;-74
2021/10/23 10:27:19;;;;;;;10.60;4.50;;;;;;;8.66;63.68;100945.05;117672;1183;23478;-74
2021/10/23 10:32:38;;;;;;;11.60;4.90;;;;;;;8.69;63.83;100940.34;117987;1174;22936;-75
2021/10/23 10:38:05;;;;;;;13.00;4.40;;;;;;;9.29;65.55;100952.85;118535;1173;23419;-75
2021/10/23 10:42:41;;;;;;;13.90;4.90;;;;;;;9.90;65.84;100953.77;118992;1171;21865;-75
2021/10/23 10:43:59;;;;;;;13.90;5.20;;;;;;;10.46;64.27;100958.45;119076;1170;22027;-76
2021/10/23 10:47:05;;;;;;;14.10;4.30;;;;;;;11.00;63.87;100960.45;119242;1170;21860;-76
2021/10/23 10:49:53;;;;;;;11.20;4.40;;;;;;;11.45;61.88;100959.70;119273;1170;21859;-76
2021/10/23 10:53:33;;;;;;;14.60;4.70;;;;;;;11.64;59.36;100966.73;118954;1173;21880;-75
2021/10/23 10:56:13;;;;;;;12.10;4.80;;;;;;;11.43;57.28;100967.70;118517;1177;23406;-75
2021/10/23 10:59:03;;;;;;;12.80;5.20;;;;;;;11.17;56.90;100970.14;118329;1177;21951;-75
2021/10/23 11:01:35;;;;;;;11.60;4.50;;;;;;;10.89;56.70;100969.11;118674;1179;22850;-75
2021/10/23 11:04:10;;;;;;;9.70;5.30;;;;;;;10.68;57.14;100971.27;117918;1179;21869;-75
2021/10/23 11:06:41;;;;;;;14.00;4.90;;;;;;;10.57;57.83;100970.74;117967;1179;23421;-75
2021/10/23 11:09:38;;;;;;;14.70;4.60;;;;;;;10.49;57.84;100969.16;118313;1179;23533;-75
2021/10/23 11:12:06;;;;;;;12.40;6.00;;;;;;;10.32;57.85;100972.17;117996;1181;23410;-77
2021/10/23 11:14:38;;;;;;;13.20;4.90;;;;;;;10.19;57.76;100975.72;117896;1181;21871;-75
2021/10/23 11:17:20;;;;;;;13.70;6.00;;;;;;;10.07;57.85;100971.61;117843;1181;23588;-74
2021/10/23 11:19:58;;;;;;;13.30;6.10;;;;;;;9.96;58.06;100973.59;118021;1178;21917;-77
2021/10/23 11:22:48;;;;;;;15.70;6.10;;;;;;;9.84;58.19;100975.02;117946;1181;21943;-75
2021/10/23 11:25:16;;;;;;;15.80;5.80;;;;;;;9.76;58.48;100974.56;117960;1182;23521;-75
2021/10/23 11:27:53;;;;;;;12.40;5.40;;;;;;;9.70;58.62;100977.33;117970;1179;21875;-76
2021/10/23 11:30:33;;;;;;;12.90;4.70;;;;;;;9.65;58.62;100982.21;118271;1176;22387;-76
2021/10/23 11:33:05;;;;;;;10.50;4.20;;;;;;;9.60;58.57;100977.90;118067;1179;21858;-79
2021/10/23 11:35:36;;;;;;;15.50;4.60;;;;;;;9.58;58.79;100980.54;117961;1182;23416;-76
2021/10/23 11:38:10;;;;;;;15.80;5.60;;;;;;;9.55;59.08;100979.59;117926;1182;21880;-76
2021/10/23 11:40:40;;;;;;;11.20;4.00;;;;;;;9.59;59.52;100983.45;118382;1168;21862;-75
2021/10/23 11:43:17;;;;;;;22.00;9.90;;;;;;;9.63;59.44;100982.02;118045;1177;22748;-76
2021/10/23 11:45:47;;;;;;;9.40;4.80;;;;;;;9.64;59.35;100985.82;118338;1177;23418;-77
2021/10/23 11:48:18;;;;;;;12.80;3.90;;;;;;;9.69;59.57;100986.58;118500;1177;22803;-76
2021/10/23 11:50:57;;;;;;;12.80;3.90;;;;;;;9.77;59.38;100992.52;118510;1176;23450;-76
2021/10/23 11:53:32;;;;;;;13.80;4.70;;;;;;;9.82;59.06;100996.06;118121;1176;22015;-78
2021/10/23 11:56:07;;;;;;;14.90;4.80;;;;;;;9.85;58.78;100997.69;118377;1175;21914;-77
2021/10/23 11:58:41;;;;;;;14.00;3.80;;;;;;;9.89;58.69;100998.30;118072;1179;23883;-78
2021/10/23 12:01:16;;;;;;;9.50;3.40;;;;;;;9.96;58.63;100998.02;118234;1178;22608;-77
2021/10/23 12:03:51;;;;;;;11.70;4.10;;;;;;;10.00;58.13;100999.40;118254;1177;21892;-77
2021/10/23 12:06:40;;;;;;;13.60;4.20;;;;;;;10.01;57.50;101001.59;118237;1178;22793;-77
2021/10/23 12:10:00;;;;;;;21.40;6.70;;;;;;;10.02;56.98;101010.09;118006;1180;21928;-79
2021/10/23 12:12:30;;;;;;;11.40;3.90;;;;;;;9.99;56.46;101011.47;119102;1176;23919;-78
2021/10/23 12:15:24;;;;;;;12.30;5.20;;;;;;;9.98;56.35;101012.64;118426;1175;23422;-77
2021/10/23 12:18:11;;;;;;;12.80;3.70;;;;;;;9.95;56.18;101015.70;118722;1178;22011;-77
2021/10/23 12:20:46;;;;;;;15.50;4.40;;;;;;;9.95;56.22;101015.91;118665;1177;23584;-78
2021/10/23 12:23:47;;;;;;;8.60;3.60;;;;;;;9.98;56.33;101017.89;118742;1176;22930;-78
2021/10/23 12:26:30;;;;;;;13.10;3.40;;;;;;;10.05;56.35;101023.02;118705;1173;21892;-77
2021/10/23 12:29:03;;;;;;;11.50;3.60;;;;;;;10.10;56.36;101021.66;118682;1176;23517;-77
2021/10/23 12:32:05;;;;;;;11.20;3.90;;;;;;;10.14;56.22;101028.80;118660;1179;21874;-77
2021/10/23 12:34:55;;;;;;;18.10;4.20;;;;;;;10.11;55.77;101031.98;118685;1174;23507;-77
2021/10/23 12:38:09;;;;;;;9.90;3.90;;;;;;;10.07;55.67;101035.98;119060;1178;23424;-76
2021/10/23 12:40:42;;;;;;;11.20;4.10;;;;;;;10.06;55.90;101039.49;118115;1182;21900;-76
2021/10/23 12:43:46;;;;;;;13.30;4.70;;;;;;;10.07;55.82;101040.92;117942;1182;23452;-77
2021/10/23 12:46:20;;;;;;;12.30;3.70;;;;;;;10.09;55.74;101042.67;118187;1183;21971;-77
2021/10/23 12:49:33;;;;;;;12.30;4.40;;;;;;;10.12;55.77;101044.67;117805;1185;21898;-76
2021/10/23 12:52:11;;;;;;;16.70;4.20;;;;;;;10.15;55.63;101050.94;118420;1184;21883;-76
2021/10/23 12:54:58;;;;;;;8.30;3.60;;;;;;;10.14;55.56;101052.59;117834;1182;22925;-75
2021/10/23 12:58:16;;;;;;;;;;;;;;;;;;;;;
2021/10/23 13:01:03;;;;;;;11.00;4.30;;;;;;;10.12;55.42;101055.05;117753;1184;21886;-78